createdAt,value
2023-04-29T00:00:27.809Z,100550.97
2023-04-29T00:02:51.712Z,100546.66
2023-04-29T00:05:15.770Z,100535.63
2023-04-29T00:07:41.008Z,100533.06
2023-04-29T00:10:05.026Z,100538.22
2023-04-29T00:12:30.398Z,100527.00
2023-04-29T00:14:53.948Z,100521.97
2023-04-29T00:17:17.673Z,100505.16
2023-04-29T00:19:41.335Z,100510.28
2023-04-29T00:22:04.968Z,100512.28
2023-04-29T00:24:30.051Z,100509.47
2023-04-29T00:26:53.566Z,100512.03
2023-04-29T00:29:17.245Z,100521.97
2023-04-29T00:31:40.768Z,100520.28
2023-04-29T00:34:04.446Z,100518.44
2023-04-29T00:36:28.511Z,100516.13
2023-04-29T00:38:52.045Z,100516.41
2023-04-29T00:41:17.034Z,100523.28
2023-04-29T00:43:40.846Z,100524.22
2023-04-29T00:46:04.509Z,100522.88
2023-04-29T00:48:28.099Z,100518.72
2023-04-29T00:50:51.982Z,100514.09
2023-04-29T00:53:15.786Z,100513.94
2023-04-29T00:55:40.072Z,100517.47
2023-04-29T00:58:05.124Z,100508.50
2023-04-29T01:00:29.719Z,100495.00
2023-04-29T01:02:57.083Z,100498.88
2023-04-29T01:05:20.814Z,100500.59
2023-04-29T01:07:57.952Z,100496.91
2023-04-29T01:10:29.263Z,100509.06
2023-04-29T01:13:01.900Z,100517.06
2023-04-29T01:15:33.272Z,100516.84
2023-04-29T01:18:01.909Z,100521.78
2023-04-29T01:20:27.547Z,100525.53
2023-04-29T01:22:51.292Z,100514.44
2023-04-29T01:25:16.668Z,100516.13
2023-04-29T01:28:30.352Z,100516.47
2023-04-29T01:31:03.355Z,100506.28
2023-04-29T01:33:36.238Z,100483.44
2023-04-29T01:36:12.126Z,100482.22
2023-04-29T01:38:43.375Z,100490.56
2023-04-29T01:41:16.103Z,100485.59
2023-04-29T01:43:42.238Z,100485.09
2023-04-29T01:46:19.725Z,100490.97
2023-04-29T01:48:43.741Z,100494.25
2023-04-29T01:51:07.750Z,100483.84
2023-04-29T01:53:31.575Z,100492.38
2023-04-29T01:55:55.188Z,100490.53
2023-04-29T01:58:40.108Z,100492.81
2023-04-29T02:01:23.031Z,100500.94
2023-04-29T02:03:46.826Z,100498.34
2023-04-29T02:06:12.382Z,100498.34
2023-04-29T02:08:36.152Z,100494.97
2023-04-29T02:11:01.001Z,100489.56
2023-04-29T02:13:39.736Z,100490.00
2023-04-29T02:16:10.496Z,100492.09
2023-04-29T02:18:36.593Z,100482.75
2023-04-29T02:21:02.769Z,100479.34
2023-04-29T02:23:30.376Z,100488.44
2023-04-29T02:25:54.197Z,100488.72
2023-04-29T02:28:17.904Z,100478.78
2023-04-29T02:30:42.864Z,100479.91
2023-04-29T02:33:08.396Z,100475.66
2023-04-29T02:35:32.334Z,100480.31
2023-04-29T02:37:56.466Z,100478.63
2023-04-29T02:40:20.109Z,100481.03
2023-04-29T02:42:43.757Z,100470.16
2023-04-29T02:45:09.345Z,100475.91
2023-04-29T02:47:34.407Z,100476.09
2023-04-29T02:49:58.003Z,100467.28
2023-04-29T02:52:21.601Z,100468.97
2023-04-29T02:54:45.965Z,100470.75
2023-04-29T02:57:09.593Z,100473.59
2023-04-29T02:59:33.132Z,100480.22
2023-04-29T03:01:57.051Z,100473.66
2023-04-29T03:04:22.352Z,100471.13
2023-04-29T03:06:46.149Z,100474.25
2023-04-29T03:09:10.280Z,100473.06
2023-04-29T03:11:33.832Z,100471.13
2023-04-29T03:13:57.919Z,100469.25
2023-04-29T03:16:22.154Z,100471.25
2023-04-29T03:18:46.258Z,100469.41
2023-04-29T03:21:11.453Z,100471.25
2023-04-29T03:23:35.005Z,100466.53
2023-04-29T03:26:00.734Z,100473.88
2023-04-29T03:28:24.384Z,100474.25
2023-04-29T03:30:48.318Z,100473.13
2023-04-29T03:33:11.866Z,100464.00
2023-04-29T03:35:35.619Z,100457.13
2023-04-29T03:38:09.284Z,100470.13
2023-04-29T03:40:34.482Z,100464.59
2023-04-29T03:42:58.128Z,100471.59
2023-04-29T03:45:21.955Z,100464.50
2023-04-29T03:47:45.617Z,100463.59
2023-04-29T03:50:10.250Z,100462.88
2023-04-29T03:52:36.428Z,100461.88
2023-04-29T03:55:07.292Z,100463.22
2023-04-29T03:57:31.152Z,100472.22
2023-04-29T03:59:55.273Z,100460.31
2023-04-29T04:02:20.662Z,100460.84
2023-04-29T04:04:44.532Z,100465.34
2023-04-29T04:07:08.258Z,100472.34
2023-04-29T04:09:50.499Z,100461.69
2023-04-29T04:12:15.740Z,100475.03
2023-04-29T04:14:39.285Z,100478.63
2023-04-29T04:17:02.940Z,100467.88
2023-04-29T04:19:27.133Z,100478.94
2023-04-29T04:21:50.962Z,100475.66
2023-04-29T04:24:15.042Z,100474.22
2023-04-29T04:26:39.096Z,100478.06
2023-04-29T04:29:14.244Z,100475.63
2023-04-29T04:31:56.200Z,100469.69
2023-04-29T04:34:21.012Z,100476.72
2023-04-29T04:36:47.130Z,100476.91
2023-04-29T04:39:10.793Z,100477.56
2023-04-29T04:41:34.376Z,100477.94
2023-04-29T04:44:00.287Z,100480.94
2023-04-29T04:46:37.588Z,100479.91
2023-04-29T04:49:08.278Z,100474.16
2023-04-29T04:51:37.810Z,100477.81
2023-04-29T04:54:01.394Z,100474.03
2023-04-29T04:56:26.484Z,100484.00
2023-04-29T04:58:50.091Z,100481.91
2023-04-29T05:01:13.675Z,100482.66
2023-04-29T05:03:38.939Z,100477.00
2023-04-29T05:06:02.901Z,100482.91
2023-04-29T05:08:27.670Z,100478.88
2023-04-29T05:10:54.351Z,100480.53
2023-04-29T05:13:18.510Z,100485.66
2023-04-29T05:15:42.990Z,100481.00
2023-04-29T05:18:06.873Z,100488.34
2023-04-29T05:20:32.315Z,100486.81
2023-04-29T05:22:58.046Z,100493.91
2023-04-29T05:25:22.542Z,100495.88
2023-04-29T05:27:46.323Z,100495.53
2023-04-29T05:30:13.909Z,100488.50
2023-04-29T05:32:37.707Z,100495.81
2023-04-29T05:35:05.999Z,100493.97
2023-04-29T05:37:32.630Z,100498.75
2023-04-29T05:40:09.563Z,100502.09
2023-04-29T05:42:33.350Z,100508.28
2023-04-29T05:44:58.002Z,100504.22
2023-04-29T05:47:21.690Z,100511.44
2023-04-29T05:49:45.468Z,100509.31
2023-04-29T05:52:09.421Z,100501.00
2023-04-29T05:54:40.188Z,100509.19
2023-04-29T05:57:04.484Z,100519.63
2023-04-29T05:59:28.006Z,100514.38
2023-04-29T06:01:52.239Z,100518.09
2023-04-29T06:04:16.140Z,100512.75
2023-04-29T06:06:58.965Z,100516.81
2023-04-29T06:09:44.083Z,100517.50
2023-04-29T06:12:08.037Z,100527.44
2023-04-29T06:14:31.602Z,100529.81
2023-04-29T06:16:55.876Z,100528.53
2023-04-29T06:19:20.779Z,100535.47
2023-04-29T06:21:45.298Z,100534.41
2023-04-29T06:24:08.981Z,100540.34
2023-04-29T06:26:34.099Z,100539.66
2023-04-29T06:28:57.610Z,100545.66
2023-04-29T06:31:23.075Z,100545.22
2023-04-29T06:33:47.846Z,100555.06
2023-04-29T06:36:12.964Z,100552.97
2023-04-29T06:38:58.398Z,100563.88
2023-04-29T06:41:37.991Z,100566.97
2023-04-29T06:44:10.875Z,100563.31
2023-04-29T06:46:44.078Z,100573.91
2023-04-29T06:49:18.168Z,100572.16
2023-04-29T06:51:42.858Z,100572.84
2023-04-29T06:54:06.463Z,100574.00
2023-04-29T06:56:30.102Z,100593.22
2023-04-29T06:58:55.076Z,100586.91
2023-04-29T07:01:18.640Z,100582.22
2023-04-29T07:03:42.493Z,100586.84
2023-04-29T07:06:06.312Z,100594.97
2023-04-29T07:08:29.991Z,100601.69
2023-04-29T07:10:57.712Z,100595.03
2023-04-29T07:13:21.275Z,100597.47
2023-04-29T07:15:47.890Z,100597.84
2023-04-29T07:18:12.121Z,100605.91
2023-04-29T07:20:38.557Z,100610.81
2023-04-29T07:23:02.177Z,100613.00
2023-04-29T07:25:25.949Z,100615.09
2023-04-29T07:27:49.522Z,100614.72
2023-04-29T07:30:13.469Z,100624.34
2023-04-29T07:32:39.210Z,100625.47
2023-04-29T07:35:02.858Z,100627.63
2023-04-29T07:37:26.872Z,100636.56
2023-04-29T07:39:50.550Z,100644.94
2023-04-29T07:42:14.097Z,100648.09
2023-04-29T07:44:38.644Z,100642.22
2023-04-29T07:47:02.268Z,100657.28
2023-04-29T07:49:27.321Z,100657.59
2023-04-29T07:51:50.849Z,100664.53
2023-04-29T07:54:14.521Z,100667.91
2023-04-29T07:56:38.088Z,100671.63
2023-04-29T07:59:02.251Z,100678.31
2023-04-29T08:01:25.797Z,100677.19
2023-04-29T08:03:49.645Z,100688.22
2023-04-29T08:06:18.375Z,100684.25
2023-04-29T08:08:42.571Z,100689.81
2023-04-29T08:11:07.502Z,100703.31
2023-04-29T08:13:34.222Z,100704.53
2023-04-29T08:15:58.027Z,100707.69
2023-04-29T08:18:22.448Z,100706.25
2023-04-29T08:20:45.956Z,100712.09
2023-04-29T08:23:11.561Z,100719.59
2023-04-29T08:25:35.094Z,100720.31
2023-04-29T08:27:58.675Z,100725.81
2023-04-29T08:30:22.297Z,100734.47
2023-04-29T08:32:46.167Z,100735.63
2023-04-29T08:35:11.200Z,100740.69
2023-04-29T08:37:34.786Z,100746.06
2023-04-29T08:39:59.698Z,100750.16
2023-04-29T08:42:36.380Z,100754.91
2023-04-29T08:45:02.282Z,100762.22
2023-04-29T08:47:25.929Z,100763.53
2023-04-29T08:49:49.656Z,100768.06
2023-04-29T08:52:13.174Z,100772.31
2023-04-29T08:54:37.327Z,100780.78
2023-04-29T08:57:02.828Z,100772.25
2023-04-29T08:59:27.626Z,100774.97
2023-04-29T09:01:54.438Z,100786.31
2023-04-29T09:04:35.300Z,100792.28
2023-04-29T09:07:00.739Z,100794.44
2023-04-29T09:09:25.840Z,100803.63
2023-04-29T09:11:49.445Z,100802.47
2023-04-29T09:14:15.594Z,100813.28
2023-04-29T09:16:39.262Z,100813.59
2023-04-29T09:19:02.788Z,100818.16
2023-04-29T09:21:28.267Z,100814.53
2023-04-29T09:23:54.464Z,100818.19
2023-04-29T09:26:18.533Z,100828.03
2023-04-29T09:28:44.693Z,100825.47
2023-04-29T09:31:09.673Z,100830.59
2023-04-29T09:33:33.539Z,100838.63
2023-04-29T09:35:57.162Z,100842.97
2023-04-29T09:38:22.118Z,100844.28
2023-04-29T09:40:57.268Z,100839.84
2023-04-29T09:43:23.750Z,100857.38
2023-04-29T09:45:49.332Z,100851.16
2023-04-29T09:48:15.715Z,100857.19
2023-04-29T09:50:40.676Z,100859.88
2023-04-29T09:53:04.834Z,100867.88
2023-04-29T09:55:29.311Z,100865.78
2023-04-29T09:57:52.901Z,100875.41
2023-04-29T10:00:16.666Z,100875.03
2023-04-29T10:02:44.217Z,100884.31
2023-04-29T10:05:10.946Z,100887.53
2023-04-29T10:07:35.268Z,100892.78
2023-04-29T10:09:58.783Z,100893.47
2023-04-29T10:12:22.723Z,100892.59
2023-04-29T10:14:55.176Z,100896.63
2023-04-29T10:17:26.155Z,100890.47
2023-04-29T10:19:55.578Z,100894.81
2023-04-29T10:22:28.259Z,100903.84
2023-04-29T10:24:53.882Z,100891.47
2023-04-29T10:27:18.570Z,100900.66
2023-04-29T10:29:44.774Z,100905.28
2023-04-29T10:32:11.125Z,100902.03
2023-04-29T10:34:35.636Z,100909.91
2023-04-29T10:36:59.639Z,100908.38
2023-04-29T10:39:34.873Z,100911.91
2023-04-29T10:41:59.239Z,100915.56
2023-04-29T10:44:24.105Z,100914.00
2023-04-29T10:46:47.791Z,100912.88
2023-04-29T10:49:12.866Z,100917.03
2023-04-29T10:51:41.933Z,100921.38
2023-04-29T10:54:10.652Z,100919.41
2023-04-29T10:56:49.423Z,100919.00
2023-04-29T10:59:17.169Z,100923.84
2023-04-29T11:01:49.456Z,100934.63
2023-04-29T11:04:13.252Z,100932.50
2023-04-29T11:06:47.367Z,100931.38
2023-04-29T11:09:14.668Z,100930.44
2023-04-29T11:12:00.580Z,100934.84
2023-04-29T11:14:27.866Z,100937.84
2023-04-29T11:16:55.055Z,100941.69
2023-04-29T11:19:18.919Z,100937.44
2023-04-29T11:21:42.544Z,100941.25
2023-04-29T11:24:08.162Z,100947.69
2023-04-29T11:26:31.774Z,100952.28
2023-04-29T11:28:59.399Z,100954.16
2023-04-29T11:31:27.496Z,100953.66
2023-04-29T11:33:52.536Z,100958.06
2023-04-29T11:36:16.251Z,100962.19
2023-04-29T11:38:42.205Z,100962.97
2023-04-29T11:41:06.055Z,100965.59
2023-04-29T11:43:29.759Z,100959.59
2023-04-29T11:45:55.514Z,100960.69
2023-04-29T11:48:20.072Z,100966.34
2023-04-29T11:50:44.018Z,100973.06
2023-04-29T11:53:07.756Z,100970.50
2023-04-29T11:55:31.685Z,100973.75
2023-04-29T11:57:55.430Z,100983.44
2023-04-29T12:00:19.263Z,100986.16
2023-04-29T12:02:49.058Z,100990.22
2023-04-29T12:05:16.399Z,100992.53
2023-04-29T12:07:42.033Z,100999.44
2023-04-29T12:10:11.901Z,101002.63
2023-04-29T12:12:37.346Z,101003.19
2023-04-29T12:15:03.677Z,101006.69
2023-04-29T12:17:27.689Z,101009.91
2023-04-29T12:19:53.047Z,101011.50
2023-04-29T12:22:16.627Z,101011.56
2023-04-29T12:24:41.376Z,101016.22
2023-04-29T12:27:05.901Z,101015.50
2023-04-29T12:29:29.464Z,101011.50
2023-04-29T12:31:53.344Z,101020.97
2023-04-29T12:34:17.086Z,101022.94
2023-04-29T12:36:43.797Z,101024.47
2023-04-29T12:39:11.196Z,101026.06
2023-04-29T12:41:39.310Z,101025.53
2023-04-29T12:44:04.233Z,101023.22
2023-04-29T12:46:27.811Z,101021.28
2023-04-29T12:48:51.551Z,101025.53
2023-04-29T12:51:15.278Z,101026.78
2023-04-29T12:53:40.929Z,101030.41
2023-04-29T12:56:04.813Z,101032.19
2023-04-29T12:58:31.197Z,101039.00
2023-04-29T13:00:54.777Z,101032.38
2023-04-29T13:03:20.424Z,101034.91
2023-04-29T13:05:48.601Z,101039.00
2023-04-29T13:08:12.151Z,101034.22
2023-04-29T13:10:37.362Z,101038.97
2023-04-29T13:13:01.397Z,101042.97
2023-04-29T13:15:24.993Z,101041.25
2023-04-29T13:17:48.598Z,101044.59
2023-04-29T13:20:13.542Z,101056.88
2023-04-29T13:22:37.448Z,101043.75
2023-04-29T13:25:01.256Z,101051.63
2023-04-29T13:27:26.436Z,101054.59
2023-04-29T13:29:50.413Z,101063.16
2023-04-29T13:32:14.236Z,101061.31
2023-04-29T13:34:38.034Z,101048.22
2023-04-29T13:37:01.820Z,101052.41
2023-04-29T13:39:25.724Z,101057.72
2023-04-29T13:41:49.413Z,101063.28
2023-04-29T13:46:40.830Z,101057.06
2023-04-29T13:49:31.927Z,101063.09
2023-04-29T13:52:22.087Z,101058.31
2023-04-29T14:02:21.728Z,101054.84
2023-04-29T14:04:36.957Z,101054.97
2023-04-29T14:07:00.773Z,101063.06
2023-04-29T14:09:24.869Z,101056.91
2023-04-29T14:11:48.536Z,101054.69
2023-04-29T14:14:12.138Z,101071.06
2023-04-29T14:16:37.248Z,101068.22
2023-04-29T14:19:03.564Z,101070.75
2023-04-29T14:21:28.075Z,101072.84
2023-04-29T14:23:51.953Z,101071.81
2023-04-29T14:28:42.315Z,101079.84
2023-04-29T14:31:06.435Z,101074.16
2023-04-29T14:33:31.453Z,101074.78
2023-04-29T14:35:55.397Z,101078.59
2023-04-29T14:38:19.041Z,101070.97
2023-04-29T14:40:42.554Z,101079.47
2023-04-29T14:43:06.695Z,101082.16
2023-04-29T14:45:30.229Z,101083.94
2023-04-29T14:47:53.823Z,101079.91
2023-04-29T14:50:18.858Z,101092.47
2023-04-29T14:52:42.571Z,101088.09
2023-04-29T14:55:07.894Z,101086.75
2023-04-29T14:57:31.636Z,101082.16
2023-04-29T14:59:55.244Z,101089.19
2023-04-29T15:02:18.825Z,101084.84
2023-04-29T15:04:45.697Z,101089.56
2023-04-29T15:07:11.128Z,101084.22
2023-04-29T15:09:34.735Z,101084.38
2023-04-29T15:11:58.348Z,101086.81
2023-04-29T15:14:21.907Z,101082.88
2023-04-29T15:16:46.029Z,101096.97
2023-04-29T15:19:09.672Z,101095.94
2023-04-29T15:21:33.657Z,101089.63
2023-04-29T15:23:58.575Z,101090.22
2023-04-29T15:26:22.624Z,101091.13
2023-04-29T15:28:46.797Z,101095.19
2023-04-29T15:31:10.441Z,101089.63
2023-04-29T15:33:34.443Z,101092.97
2023-04-29T15:35:58.184Z,101095.53
2023-04-29T15:38:21.698Z,101109.53
2023-04-29T15:40:46.682Z,101099.19
2023-04-29T15:43:10.201Z,101106.94
2023-04-29T15:45:34.425Z,101102.38
2023-04-29T15:47:57.997Z,101104.03
2023-04-29T15:50:21.937Z,101103.81
2023-04-29T15:52:45.480Z,101111.72
2023-04-29T15:55:09.716Z,101120.56
2023-04-29T15:57:40.901Z,101121.97
2023-04-29T16:00:05.291Z,101120.56
2023-04-29T16:02:28.955Z,101128.47
2023-04-29T16:04:52.662Z,101128.16
2023-04-29T16:07:16.345Z,101126.13
2023-04-29T16:09:40.077Z,101126.22
2023-04-29T16:12:03.841Z,101136.63
2023-04-29T16:14:30.017Z,101132.53
2023-04-29T16:16:53.698Z,101143.13
2023-04-29T16:19:17.488Z,101141.44
2023-04-29T16:21:41.515Z,101141.03
2023-04-29T16:24:05.681Z,101136.38
2023-04-29T16:26:29.415Z,101135.91
2023-04-29T16:28:53.207Z,101139.88
2023-04-29T16:31:19.986Z,101135.66
2023-04-29T16:33:43.634Z,101140.97
2023-04-29T16:36:07.862Z,101142.34
2023-04-29T16:38:31.996Z,101148.13
2023-04-29T16:40:55.978Z,101154.78
2023-04-29T16:43:19.685Z,101157.72
2023-04-29T16:45:43.314Z,101153.53
2023-04-29T16:48:08.546Z,101163.84
2023-04-29T16:50:32.120Z,101165.22
2023-04-29T16:52:55.676Z,101165.63
2023-04-29T16:55:19.408Z,101173.06
2023-04-29T16:57:43.059Z,101174.59
2023-04-29T17:00:10.194Z,101176.84
2023-04-29T17:02:33.854Z,101179.66
2023-04-29T17:04:58.972Z,101179.59
2023-04-29T17:07:22.676Z,101182.31
2023-04-29T17:09:47.312Z,101184.84
2023-04-29T17:12:11.013Z,101188.63
2023-04-29T17:14:34.826Z,101189.19
2023-04-29T17:16:58.420Z,101187.84
2023-04-29T17:19:21.992Z,101187.28
2023-04-29T17:21:47.315Z,101193.09
2023-04-29T17:24:10.831Z,101197.63
2023-04-29T17:26:34.504Z,101195.22
2023-04-29T17:28:58.887Z,101201.94
2023-04-29T17:31:25.519Z,101195.47
2023-04-29T17:33:55.225Z,101203.09
2023-04-29T17:36:18.791Z,101206.09
2023-04-29T17:38:43.673Z,101210.19
2023-04-29T17:41:07.315Z,101212.78
2023-04-29T17:43:33.237Z,101207.38
2023-04-29T17:45:59.858Z,101211.47
2023-04-29T17:48:23.419Z,101225.84
2023-04-29T17:50:47.318Z,101229.59
2023-04-29T17:53:10.917Z,101227.47
2023-04-29T17:55:35.912Z,101230.75
2023-04-29T17:57:59.426Z,101230.66
2023-04-29T18:00:23.721Z,101232.47
2023-04-29T18:02:47.349Z,101231.66
2023-04-29T18:05:11.533Z,101239.19
2023-04-29T18:07:35.112Z,101238.38
2023-04-29T18:09:58.873Z,101240.50
2023-04-29T18:12:24.183Z,101237.81
2023-04-29T18:14:48.797Z,101248.78
2023-04-29T18:17:12.348Z,101241.81
2023-04-29T18:19:36.079Z,101244.94
2023-04-29T18:22:01.385Z,101259.47
2023-04-29T18:24:25.655Z,101252.78
2023-04-29T18:26:49.188Z,101259.63
2023-04-29T18:29:14.139Z,101261.31
2023-04-29T18:31:37.959Z,101267.13
2023-04-29T18:34:01.673Z,101273.41
2023-04-29T18:36:25.188Z,101276.53
2023-04-29T18:38:49.031Z,101272.50
2023-04-29T18:41:13.167Z,101278.13
2023-04-29T18:43:36.921Z,101293.66
2023-04-29T18:46:02.239Z,101288.00
2023-04-29T18:48:27.692Z,101294.94
2023-04-29T18:50:53.404Z,101289.66
2023-04-29T18:53:16.990Z,101298.25
2023-04-29T18:55:40.608Z,101300.44
2023-04-29T18:58:04.334Z,101308.59
2023-04-29T19:00:27.938Z,101316.47
2023-04-29T19:02:52.916Z,101318.38
2023-04-29T19:05:16.495Z,101313.38
2023-04-29T19:07:40.176Z,101317.72
2023-04-29T19:10:03.961Z,101315.66
2023-04-29T19:12:27.656Z,101326.41
2023-04-29T19:14:51.220Z,101332.84
2023-04-29T19:17:14.812Z,101339.09
2023-04-29T19:19:39.763Z,101335.94
2023-04-29T19:22:05.334Z,101342.09
2023-04-29T19:24:28.902Z,101343.59
2023-04-29T19:26:52.479Z,101346.16
2023-04-29T19:29:16.144Z,101341.41
2023-04-29T19:31:39.807Z,101349.78
2023-04-29T19:34:03.644Z,101354.44
2023-04-29T19:36:28.657Z,101355.91
2023-04-29T19:38:52.185Z,101357.13
2023-04-29T19:41:15.952Z,101362.28
2023-04-29T19:43:39.577Z,101360.59
2023-04-29T19:46:03.193Z,101352.13
2023-04-29T19:48:26.811Z,101361.06
2023-04-29T19:50:50.515Z,101366.69
2023-04-29T19:53:15.447Z,101367.28
2023-04-29T19:55:40.217Z,101373.78
2023-04-29T19:58:03.827Z,101370.31
2023-04-29T20:00:27.536Z,101368.84
2023-04-29T20:02:52.282Z,101371.06
2023-04-29T20:05:16.395Z,101383.16
2023-04-29T20:07:40.228Z,101382.66
2023-04-29T20:10:06.100Z,101387.63
2023-04-29T20:12:29.660Z,101382.69
2023-04-29T20:14:53.315Z,101389.41
2023-04-29T20:17:17.822Z,101392.19
2023-04-29T20:19:41.554Z,101387.63
2023-04-29T20:22:05.103Z,101399.91
2023-04-29T20:24:28.718Z,101399.63
2023-04-29T20:26:53.668Z,101396.41
2023-04-29T20:29:17.224Z,101402.63
2023-04-29T20:31:40.870Z,101421.41
2023-04-29T20:34:04.498Z,101415.28
2023-04-29T20:36:28.729Z,101411.19
2023-04-29T20:38:52.688Z,101414.66
2023-04-29T20:41:16.383Z,101428.53
2023-04-29T20:43:41.348Z,101431.94
2023-04-29T20:46:04.977Z,101425.22
2023-04-29T20:48:28.789Z,101430.38
2023-04-29T20:50:52.323Z,101437.16
2023-04-29T20:53:16.920Z,101424.81
2023-04-29T20:55:40.561Z,101437.28
2023-04-29T20:58:04.122Z,101427.28
2023-04-29T21:00:29.034Z,101433.09
2023-04-29T21:02:52.709Z,101439.00
2023-04-29T21:05:16.395Z,101446.22
2023-04-29T21:07:39.987Z,101448.38
2023-04-29T21:10:03.575Z,101450.72
2023-04-29T21:12:27.221Z,101458.22
2023-04-29T21:14:50.754Z,101461.22
2023-04-29T21:17:16.392Z,101464.88
2023-04-29T21:19:39.947Z,101465.38
2023-04-29T21:22:03.530Z,101468.41
2023-04-29T21:24:28.665Z,101469.81
2023-04-29T21:26:52.324Z,101476.06
2023-04-29T21:29:15.910Z,101480.69
2023-04-29T21:31:39.581Z,101481.44
2023-04-29T21:34:04.498Z,101480.25
2023-04-29T21:36:28.131Z,101476.72
2023-04-29T21:38:52.815Z,101477.47
2023-04-29T21:41:22.711Z,101482.50
2023-04-29T21:43:46.280Z,101489.06
2023-04-29T21:46:09.898Z,101488.34
2023-04-29T21:48:34.126Z,101488.66
2023-04-29T21:51:00.204Z,101501.13
2023-04-29T21:53:23.741Z,101496.06
2023-04-29T21:55:47.348Z,101497.28
2023-04-29T21:58:11.630Z,101509.34
2023-04-29T22:00:36.605Z,101508.25
2023-04-29T22:03:01.081Z,101511.84
2023-04-29T22:05:24.840Z,101507.69
2023-04-29T22:47:23.641Z,101557.00
2023-04-29T22:49:47.593Z,101560.75
2023-04-29T22:52:11.203Z,101562.47
2023-04-29T23:13:32.059Z,101580.66
2023-04-29T23:15:58.296Z,101574.53
2023-04-29T23:18:21.929Z,101580.66
2023-04-29T23:20:48.374Z,101579.38
2023-04-29T23:23:11.941Z,101580.84
2023-04-29T23:25:36.581Z,101583.16
2023-04-29T23:28:00.133Z,101588.31
2023-04-29T23:30:25.703Z,101600.28
2023-04-29T23:32:49.324Z,101596.16
2023-04-29T23:35:13.096Z,101591.84
2023-04-29T23:55:24.554Z,101600.63
2023-04-29T23:57:48.313Z,101599.25
